Time,TemperatureF,DewpointF,PressureIn,WindDirection,WindDirectionDegrees,WindSpeedMPH,WindSpeedGustMPH,Humidity,HourlyPrecipIn,Conditions,Clouds,dailyrainin,SolarRadiationWatts/m^2,SoftwareType,DateUTC
2013-04-16 00:12:00,27.0,27.0,-100.00,NW,308,8.0,18.0,100,0.00,,,0.00,0.000000,,2013-04-16 07:12:00,
2013-04-16 00:22:00,27.0,27.0,-100.00,NW,308,8.0,18.0,100,0.00,,,0.00,0.000000,,2013-04-16 07:22:00,
2013-04-16 00:32:00,27.0,27.0,-100.00,NW,308,8.0,18.0,100,0.00,,,0.00,0.000000,,2013-04-16 07:32:00,
2013-04-16 00:42:00,27.0,27.0,-100.00,NW,308,8.0,18.0,100,0.00,,,0.00,0.000000,,2013-04-16 07:42:00,
2013-04-16 00:51:00,24.0,24.0,-100.00,ENE,63,7.0,18.0,100,0.00,,,0.00,0.000000,,2013-04-16 07:51:00,
2013-04-16 01:12:00,24.0,24.0,-100.00,ENE,63,7.0,18.0,100,0.00,,,0.00,0.000000,,2013-04-16 08:12:00,
2013-04-16 01:22:00,24.0,24.0,-100.00,ENE,63,7.0,18.0,100,0.00,,,0.00,0.000000,,2013-04-16 08:22:00,
2013-04-16 01:32:00,24.0,24.0,-100.00,ENE,63,7.0,18.0,100,0.00,,,0.00,0.000000,,2013-04-16 08:32:00,
2013-04-16 01:42:00,24.0,24.0,-100.00,ENE,63,7.0,18.0,100,0.00,,,0.00,0.000000,,2013-04-16 08:42:00,
2013-04-16 01:51:00,21.0,21.0,-100.00,NNE,31,8.0,22.0,100,0.00,,,0.00,0.000000,,2013-04-16 08:51:00,
2013-04-16 02:22:00,21.0,21.0,-100.00,NNE,31,8.0,22.0,100,0.00,,,0.00,0.000000,,2013-04-16 09:22:00,
2013-04-16 02:32:00,21.0,21.0,-100.00,NNE,31,8.0,22.0,100,0.00,,,0.00,0.000000,,2013-04-16 09:32:00,
2013-04-16 02:42:00,21.0,21.0,-100.00,NNE,31,8.0,22.0,100,0.00,,,0.00,0.000000,,2013-04-16 09:42:00,
2013-04-16 02:51:00,20.0,20.0,-100.00,WNW,292,6.0,16.0,100,0.00,,,0.00,0.000000,,2013-04-16 09:51:00,
2013-04-16 03:13:00,20.0,20.0,-100.00,WNW,292,6.0,16.0,100,0.00,,,0.00,0.000000,,2013-04-16 10:13:00,
2013-04-16 03:22:00,20.0,20.0,-100.00,WNW,292,6.0,16.0,100,0.00,,,0.00,0.000000,,2013-04-16 10:22:00,
2013-04-16 03:32:00,20.0,20.0,-100.00,WNW,292,6.0,16.0,100,0.00,,,0.00,0.000000,,2013-04-16 10:32:00,
2013-04-16 03:42:00,20.0,20.0,-100.00,WNW,292,6.0,16.0,100,0.00,,,0.00,0.000000,,2013-04-16 10:42:00,
2013-04-16 03:51:00,20.0,20.0,-100.00,NW,317,9.0,20.0,100,0.00,,,0.00,0.000000,,2013-04-16 10:51:00,
2013-04-16 04:22:00,20.0,20.0,-100.00,NW,317,9.0,20.0,100,0.00,,,0.00,0.000000,,2013-04-16 11:22:00,
2013-04-16 04:32:00,20.0,20.0,-100.00,NW,317,9.0,20.0,100,0.00,,,0.00,0.000000,,2013-04-16 11:32:00,
2013-04-16 04:42:00,20.0,20.0,-100.00,NW,317,9.0,20.0,100,0.00,,,0.00,0.000000,,2013-04-16 11:42:00,
2013-04-16 04:51:00,20.0,20.0,-100.00,NNW,344,8.0,19.0,100,0.00,,,0.00,0.000000,,2013-04-16 11:51:00,
2013-04-16 05:12:00,20.0,20.0,-100.00,NNW,344,8.0,19.0,100,0.00,,,0.00,0.000000,,2013-04-16 12:12:00,
2013-04-16 05:22:00,20.0,20.0,-100.00,NNW,344,8.0,19.0,100,0.00,,,0.00,0.000000,,2013-04-16 12:22:00,
2013-04-16 05:32:00,20.0,20.0,-100.00,NNW,344,8.0,19.0,100,0.00,,,0.00,0.000000,,2013-04-16 12:32:00,
2013-04-16 05:42:00,20.0,20.0,-100.00,NNW,344,8.0,19.0,100,0.00,,,0.00,0.000000,,2013-04-16 12:42:00,
2013-04-16 05:51:00,20.0,20.0,-100.00,SE,143,9.0,22.0,100,0.00,,,0.00,0.000000,,2013-04-16 12:51:00,
2013-04-16 06:22:00,20.0,20.0,-100.00,SE,143,9.0,22.0,100,0.00,,,0.00,0.000000,,2013-04-16 13:22:00,
2013-04-16 06:32:00,20.0,20.0,-100.00,SE,143,9.0,22.0,100,0.00,,,0.00,0.000000,,2013-04-16 13:32:00,
2013-04-16 06:42:00,20.0,20.0,-100.00,SE,143,9.0,22.0,100,0.00,,,0.00,0.000000,,2013-04-16 13:42:00,
2013-04-16 06:51:00,21.0,21.0,-100.00,West,272,6.0,19.0,100,0.00,,,0.00,5.000000,,2013-04-16 13:51:00,
2013-04-16 07:12:00,21.0,21.0,-100.00,West,272,6.0,19.0,100,0.00,,,0.00,5.000000,,2013-04-16 14:12:00,
2013-04-16 07:22:00,21.0,21.0,-100.00,West,272,6.0,19.0,100,0.00,,,0.00,5.000000,,2013-04-16 14:22:00,
2013-04-16 07:32:00,21.0,21.0,-100.00,West,272,6.0,19.0,100,0.00,,,0.00,5.000000,,2013-04-16 14:32:00,
2013-04-16 07:42:00,21.0,21.0,-100.00,West,272,6.0,19.0,100,0.00,,,0.00,5.000000,,2013-04-16 14:42:00,
2013-04-16 07:51:00,21.0,21.0,-100.00,North,352,6.0,16.0,100,0.00,,,0.00,68.000000,,2013-04-16 14:51:00,
2013-04-16 08:12:00,21.0,21.0,-100.00,North,352,6.0,16.0,100,0.00,,,0.00,68.000000,,2013-04-16 15:12:00,
2013-04-16 08:22:00,21.0,21.0,-100.00,North,352,6.0,16.0,100,0.00,,,0.00,68.000000,,2013-04-16 15:22:00,
2013-04-16 08:32:00,21.0,21.0,-100.00,North,352,6.0,16.0,100,0.00,,,0.00,68.000000,,2013-04-16 15:32:00,
2013-04-16 08:43:00,21.0,21.0,-100.00,North,352,6.0,16.0,100,0.00,,,0.00,68.000000,,2013-04-16 15:43:00,
2013-04-16 08:51:00,22.0,22.0,-100.00,NNW,335,5.0,15.0,100,0.00,,,0.00,194.000000,,2013-04-16 15:51:00,
2013-04-16 09:13:00,22.0,22.0,-100.00,NNW,335,5.0,15.0,100,0.00,,,0.00,194.000000,,2013-04-16 16:13:00,
2013-04-16 09:23:00,22.0,22.0,-100.00,NNW,335,5.0,15.0,100,0.00,,,0.00,194.000000,,2013-04-16 16:23:00,
2013-04-16 09:32:00,22.0,22.0,-100.00,NNW,335,5.0,15.0,100,0.00,,,0.00,194.000000,,2013-04-16 16:32:00,
2013-04-16 09:42:00,22.0,22.0,-100.00,NNW,335,5.0,15.0,100,0.00,,,0.00,194.000000,,2013-04-16 16:42:00,
2013-04-16 09:51:00,23.0,23.0,-100.00,NNW,337,5.0,10.0,100,0.00,,,0.00,395.000000,,2013-04-16 16:51:00,
2013-04-16 10:22:00,23.0,23.0,-100.00,NNW,337,5.0,10.0,100,0.00,,,0.00,395.000000,,2013-04-16 17:22:00,
2013-04-16 10:32:00,23.0,23.0,-100.00,NNW,337,5.0,10.0,100,0.00,,,0.00,395.000000,,2013-04-16 17:32:00,
2013-04-16 10:43:00,23.0,23.0,-100.00,NNW,337,5.0,10.0,100,0.00,,,0.00,395.000000,,2013-04-16 17:43:00,
2013-04-16 10:51:00,24.0,24.0,-100.00,NNW,339,3.0,9.0,100,0.00,,,0.00,752.000000,,2013-04-16 17:51:00,
2013-04-16 11:22:00,24.0,24.0,-100.00,NNW,339,3.0,9.0,100,0.00,,,0.00,752.000000,,2013-04-16 18:22:00,
2013-04-16 11:32:00,24.0,24.0,-100.00,NNW,339,3.0,9.0,100,0.00,,,0.00,752.000000,,2013-04-16 18:32:00,
2013-04-16 11:42:00,24.0,24.0,-100.00,NNW,339,3.0,9.0,100,0.00,,,0.00,752.000000,,2013-04-16 18:42:00,
2013-04-16 11:51:00,26.0,26.0,-100.00,SSW,198,5.0,13.0,100,0.00,,,0.00,1131.000000,,2013-04-16 18:51:00,
2013-04-16 12:22:00,26.0,26.0,-100.00,SSW,198,5.0,13.0,100,0.00,,,0.00,1131.000000,,2013-04-16 19:22:00,
2013-04-16 12:32:00,26.0,26.0,-100.00,SSW,198,5.0,13.0,100,0.00,,,0.00,1131.000000,,2013-04-16 19:32:00,
2013-04-16 12:42:00,26.0,26.0,-100.00,SSW,198,5.0,13.0,100,0.00,,,0.00,1131.000000,,2013-04-16 19:42:00,
2013-04-16 12:51:00,26.0,26.0,-100.00,North,351,8.0,18.0,100,0.00,,,0.00,1033.000000,,2013-04-16 19:51:00,
2013-04-16 13:12:00,26.0,26.0,-100.00,North,351,8.0,18.0,100,0.00,,,0.00,1033.000000,,2013-04-16 20:12:00,
2013-04-16 13:22:00,26.0,26.0,-100.00,North,351,8.0,18.0,100,0.00,,,0.00,1033.000000,,2013-04-16 20:22:00,
2013-04-16 13:32:00,26.0,26.0,-100.00,North,351,8.0,18.0,100,0.00,,,0.00,1033.000000,,2013-04-16 20:32:00,
2013-04-16 13:42:00,26.0,26.0,-100.00,North,351,8.0,18.0,100,0.00,,,0.00,1033.000000,,2013-04-16 20:42:00,
2013-04-16 13:51:00,27.0,27.0,-100.00,NNW,337,8.0,20.0,100,0.00,,,0.00,962.000000,,2013-04-16 20:51:00,
2013-04-16 14:22:00,27.0,27.0,-100.00,NNW,337,8.0,20.0,100,0.00,,,0.00,962.000000,,2013-04-16 21:22:00,
2013-04-16 14:32:00,27.0,27.0,-100.00,NNW,337,8.0,20.0,100,0.00,,,0.00,962.000000,,2013-04-16 21:32:00,
2013-04-16 14:42:00,27.0,27.0,-100.00,NNW,337,8.0,20.0,100,0.00,,,0.00,962.000000,,2013-04-16 21:42:00,
2013-04-16 14:51:00,28.0,28.0,-100.00,SW,225,6.0,17.0,100,0.00,,,0.00,902.000000,,2013-04-16 21:51:00,
2013-04-16 15:22:00,28.0,28.0,-100.00,SW,225,6.0,17.0,100,0.00,,,0.00,902.000000,,2013-04-16 22:22:00,
2013-04-16 15:32:00,28.0,28.0,-100.00,SW,225,6.0,17.0,100,0.00,,,0.00,902.000000,,2013-04-16 22:32:00,
2013-04-16 15:42:00,28.0,28.0,-100.00,SW,225,6.0,17.0,100,0.00,,,0.00,902.000000,,2013-04-16 22:42:00,
2013-04-16 15:51:00,29.0,29.0,-100.00,NNW,333,5.0,19.0,100,0.00,,,0.00,692.000000,,2013-04-16 22:51:00,
2013-04-16 16:22:00,29.0,29.0,-100.00,NNW,333,5.0,19.0,100,0.00,,,0.00,692.000000,,2013-04-16 23:22:00,
2013-04-16 16:32:00,29.0,29.0,-100.00,NNW,333,5.0,19.0,100,0.00,,,0.00,692.000000,,2013-04-16 23:32:00,
2013-04-16 16:42:00,29.0,29.0,-100.00,NNW,333,5.0,19.0,100,0.00,,,0.00,692.000000,,2013-04-16 23:42:00,
2013-04-16 16:51:00,28.0,26.0,-100.00,NNE,29,7.0,20.0,93,0.00,,,0.00,441.000000,,2013-04-16 23:51:00,
2013-04-16 17:12:00,28.0,26.0,-100.00,NNE,29,7.0,20.0,93,0.00,,,0.00,441.000000,,2013-04-17 00:12:00,
2013-04-16 17:22:00,28.0,26.0,-100.00,NNE,29,7.0,20.0,93,0.00,,,0.00,441.000000,,2013-04-17 00:22:00,
2013-04-16 17:32:00,28.0,26.0,-100.00,NNE,29,7.0,20.0,93,0.00,,,0.00,441.000000,,2013-04-17 00:32:00,
2013-04-16 17:42:00,28.0,26.0,-100.00,NNE,29,7.0,20.0,93,0.00,,,0.00,441.000000,,2013-04-17 00:42:00,
2013-04-16 17:51:00,27.0,24.0,-100.00,NE,41,6.0,20.0,88,0.00,,,0.00,176.000000,,2013-04-17 00:51:00,
2013-04-16 18:12:00,27.0,24.0,-100.00,NE,41,6.0,20.0,88,0.00,,,0.00,176.000000,,2013-04-17 01:12:00,
2013-04-16 18:22:00,27.0,24.0,-100.00,NE,41,6.0,20.0,88,0.00,,,0.00,176.000000,,2013-04-17 01:22:00,
2013-04-16 18:32:00,27.0,24.0,-100.00,NE,41,6.0,20.0,88,0.00,,,0.00,176.000000,,2013-04-17 01:32:00,
2013-04-16 18:42:00,27.0,24.0,-100.00,NE,41,6.0,20.0,88,0.00,,,0.00,176.000000,,2013-04-17 01:42:00,
2013-04-16 18:51:00,26.0,24.0,-100.00,NNW,343,8.0,31.0,93,0.00,,,0.00,83.000000,,2013-04-17 01:51:00,
2013-04-16 19:22:00,26.0,24.0,-100.00,NNW,343,8.0,31.0,93,0.00,,,0.00,83.000000,,2013-04-17 02:22:00,
2013-04-16 19:32:00,26.0,24.0,-100.00,NNW,343,8.0,31.0,93,0.00,,,0.00,83.000000,,2013-04-17 02:32:00,
2013-04-16 19:42:00,26.0,24.0,-100.00,NNW,343,8.0,31.0,93,0.00,,,0.00,83.000000,,2013-04-17 02:42:00,
2013-04-16 19:51:00,24.0,24.0,-100.00,NNE,30,14.0,22.0,100,0.00,,,0.00,21.000000,,2013-04-17 02:51:00,
2013-04-16 20:12:00,24.0,24.0,-100.00,NNE,30,14.0,22.0,100,0.00,,,0.00,21.000000,,2013-04-17 03:12:00,
2013-04-16 20:22:00,24.0,24.0,-100.00,NNE,30,14.0,22.0,100,0.00,,,0.00,21.000000,,2013-04-17 03:22:00,
2013-04-16 20:32:00,24.0,24.0,-100.00,NNE,30,14.0,22.0,100,0.00,,,0.00,21.000000,,2013-04-17 03:32:00,
2013-04-16 20:42:00,24.0,24.0,-100.00,NNE,30,14.0,22.0,100,0.00,,,0.00,21.000000,,2013-04-17 03:42:00,
2013-04-16 20:51:00,24.0,21.0,-100.00,North,4,16.0,28.0,89,0.00,,,0.00,0.000000,,2013-04-17 03:51:00,
2013-04-16 21:22:00,24.0,21.0,-100.00,North,4,16.0,28.0,89,0.00,,,0.00,0.000000,,2013-04-17 04:22:00,
2013-04-16 21:33:00,24.0,21.0,-100.00,North,4,16.0,28.0,89,0.00,,,0.00,0.000000,,2013-04-17 04:33:00,
2013-04-16 21:42:00,24.0,21.0,-100.00,North,4,16.0,28.0,89,0.00,,,0.00,0.000000,,2013-04-17 04:42:00,
2013-04-16 21:51:00,24.0,21.0,-100.00,ESE,119,16.0,28.0,87,0.00,,,-99.99,0.000000,,2013-04-17 04:51:00,
2013-04-16 22:22:00,24.0,21.0,-100.00,ESE,119,16.0,28.0,87,0.00,,,-99.99,0.000000,,2013-04-17 05:22:00,
2013-04-16 22:32:00,24.0,21.0,-100.00,ESE,119,16.0,28.0,87,0.00,,,-99.99,0.000000,,2013-04-17 05:32:00,
2013-04-16 22:42:00,24.0,21.0,-100.00,ESE,119,16.0,28.0,87,0.00,,,-99.99,0.000000,,2013-04-17 05:42:00,
2013-04-16 22:51:00,24.0,20.0,-100.00,NW,321,13.0,29.0,85,0.00,,,0.00,0.000000,,2013-04-17 05:51:00,
2013-04-16 23:12:00,24.0,20.0,-100.00,NW,321,13.0,29.0,85,0.00,,,0.00,0.000000,,2013-04-17 06:12:00,
2013-04-16 23:22:00,24.0,20.0,-100.00,NW,321,13.0,29.0,85,0.00,,,0.00,0.000000,,2013-04-17 06:22:00,
2013-04-16 23:32:00,24.0,20.0,-100.00,NW,321,13.0,29.0,85,0.00,,,0.00,0.000000,,2013-04-17 06:32:00,
2013-04-16 23:42:00,24.0,20.0,-100.00,NW,321,13.0,29.0,85,0.00,,,0.00,0.000000,,2013-04-17 06:42:00,
2013-04-16 23:51:00,23.0,21.0,-100.00,NNW,343,9.0,22.0,90,0.00,,,0.00,0.000000,,2013-04-17 06:51:00,